Time;durP1;ratioP1;P1;durP2;ratioP2;P2;SDS_P1;SDS_P2;PMS_P1;PMS_P2;Temp;Humidity;BMP_temperature;BMP_pressure;BME280_temperature;BME280_humidity;BME280_pressure;Samples;Min_cycle;Max_cycle;Signal;HPM_P1;HPM_P2
2023/07/03 00:02:46;;;;;;;13.57;5.13;;;;;;;19.16;46.48;99841.31;10247387;28;20542;-58
2023/07/03 00:07:48;;;;;;;13.93;4.40;;;;;;;19.15;46.67;99847.00;10250204;28;20578;-58
2023/07/03 00:12:49;;;;;;;17.13;5.30;;;;;;;19.19;46.62;99846.28;10243056;28;20586;-58
2023/07/03 00:17:51;;;;;;;13.32;4.50;;;;;;;19.20;46.77;99847.13;10249190;28;20040;-58
2023/07/03 00:22:52;;;;;;;15.05;4.68;;;;;;;19.25;46.82;99852.63;10241706;28;20071;-57
2023/07/03 00:27:54;;;;;;;15.80;5.50;;;;;;;19.17;47.09;99848.44;10244523;28;20050;-59
2023/07/03 00:32:55;;;;;;;10.73;4.80;;;;;;;19.23;47.07;99857.50;10244787;28;20511;-59
2023/07/03 00:37:57;;;;;;;14.50;5.60;;;;;;;19.31;46.94;99861.72;10245194;28;20051;-59
2023/07/03 00:42:58;;;;;;;17.33;5.68;;;;;;;19.29;47.07;99864.69;10243467;28;20679;-58
2023/07/03 00:48:00;;;;;;;15.60;5.05;;;;;;;19.26;47.10;99867.13;10249786;28;20066;-58
2023/07/03 00:53:04;;;;;;;11.10;4.95;;;;;;;19.20;47.46;99864.28;10244952;28;20559;-59
2023/07/03 00:58:06;;;;;;;13.10;5.43;;;;;;;19.19;47.54;99868.09;10244650;28;20058;-60
2023/07/03 01:03:21;;;;;;;15.35;4.70;;;;;;;19.14;47.80;99864.44;10240264;28;20066;-59
2023/07/03 01:08:24;;;;;;;15.55;6.35;;;;;;;19.21;47.64;99865.94;10242341;28;20051;-60
2023/07/03 01:13:29;;;;;;;12.98;4.85;;;;;;;19.19;47.65;99865.38;10244950;28;20733;-59
2023/07/03 01:18:32;;;;;;;15.68;5.75;;;;;;;19.21;47.83;99863.22;10246009;28;20138;-59
2023/07/03 01:23:41;;;;;;;14.70;4.57;;;;;;;19.21;47.84;99859.66;10243177;28;20066;-58
2023/07/03 01:28:45;;;;;;;12.07;5.53;;;;;;;19.19;47.95;99864.53;10245094;28;20047;-58
2023/07/03 01:33:47;;;;;;;14.70;4.85;;;;;;;19.22;47.79;99867.59;10239780;28;20358;-59
2023/07/03 01:38:50;;;;;;;16.27;6.22;;;;;;;19.26;47.82;99861.66;10241305;28;20843;-59
2023/07/03 01:43:52;;;;;;;12.30;4.90;;;;;;;19.24;47.89;99866.53;10238858;28;20501;-58
2023/07/03 01:48:53;;;;;;;10.32;5.22;;;;;;;19.21;48.06;99854.19;10243471;28;20047;-59
2023/07/03 01:54:15;;;;;;;17.67;5.35;;;;;;;19.19;47.97;99857.19;10242725;28;20059;-58
2023/07/03 01:59:24;;;;;;;12.60;4.95;;;;;;;19.19;48.12;99853.63;10243106;28;20044;-59
2023/07/03 02:04:33;;;;;;;14.50;5.18;;;;;;;19.16;47.91;99857.66;10241890;28;20062;-58
2023/07/03 02:09:36;;;;;;;11.90;5.03;;;;;;;19.20;48.11;99861.56;10241779;28;20098;-59
2023/07/03 02:14:38;;;;;;;11.75;4.38;;;;;;;19.16;48.26;99859.59;10241460;28;20059;-59
2023/07/03 02:19:40;;;;;;;13.15;5.45;;;;;;;19.17;48.11;99864.78;10241499;28;20054;-59
2023/07/03 02:24:41;;;;;;;13.75;5.07;;;;;;;19.13;47.98;99869.03;10239879;28;20043;-58
2023/07/03 02:29:43;;;;;;;17.35;5.22;;;;;;;19.09;48.32;99870.59;10244044;28;20043;-59
2023/07/03 02:34:44;;;;;;;20.77;5.35;;;;;;;19.09;48.35;99870.59;10242332;28;20046;-59
2023/07/03 02:39:45;;;;;;;12.82;4.80;;;;;;;19.12;48.13;99870.13;10245747;28;20043;-59
2023/07/03 02:44:47;;;;;;;15.95;5.00;;;;;;;19.18;48.20;99866.44;10238989;28;20122;-59
2023/07/03 02:49:48;;;;;;;18.15;5.22;;;;;;;19.14;48.16;99868.00;10244722;28;20074;-59
2023/07/03 02:54:50;;;;;;;15.10;5.88;;;;;;;19.13;48.33;99863.59;10225362;28;20450;-59
2023/07/03 02:59:51;;;;;;;16.73;5.50;;;;;;;19.12;48.54;99863.88;10241024;28;20043;-59
2023/07/03 03:04:53;;;;;;;16.88;6.18;;;;;;;19.07;48.68;99859.13;10239811;28;20051;-58
2023/07/03 03:09:54;;;;;;;17.55;5.05;;;;;;;19.04;48.74;99867.81;10244531;28;20053;-59
2023/07/03 03:14:55;;;;;;;11.95;5.05;;;;;;;19.00;48.94;99874.81;10249962;28;20048;-59
2023/07/03 03:19:57;;;;;;;14.00;4.82;;;;;;;18.91;49.12;99879.00;10248165;28;20339;-63
2023/07/03 03:25:00;;;;;;;11.43;4.78;;;;;;;18.89;49.24;99881.94;10248100;28;20166;-63
2023/07/03 03:30:02;;;;;;;14.80;4.93;;;;;;;18.88;49.24;99884.91;10245733;28;20074;-64
2023/07/03 03:35:04;;;;;;;11.90;4.25;;;;;;;18.87;49.35;99888.72;10243357;28;20403;-64
2023/07/03 03:40:07;;;;;;;16.48;4.55;;;;;;;18.86;49.12;99896.06;10253160;28;20514;-63
2023/07/03 03:45:09;;;;;;;11.88;3.72;;;;;;;18.86;49.18;99892.50;10243583;28;20059;-61
2023/07/03 03:50:11;;;;;;;8.85;3.08;;;;;;;18.86;48.79;99887.91;10249104;28;20262;-62
2023/07/03 03:55:12;;;;;;;17.92;4.32;;;;;;;18.94;48.58;99883.97;10247057;28;20406;-62
2023/07/03 04:00:16;;;;;;;6.97;2.08;;;;;;;18.94;48.38;99867.63;10240414;28;20127;-61
2023/07/03 04:05:18;;;;;;;7.65;2.10;;;;;;;19.03;48.19;99871.59;10244180;28;20083;-62
2023/07/03 04:10:19;;;;;;;14.23;3.25;;;;;;;19.11;48.09;99873.09;10244458;28;20051;-62
2023/07/03 04:15:24;;;;;;;12.43;2.50;;;;;;;19.06;48.16;99882.00;10243090;28;20054;-62
2023/07/03 04:20:27;;;;;;;14.02;3.05;;;;;;;18.96;48.18;99882.63;10244314;28;20051;-62
2023/07/03 04:25:30;;;;;;;12.18;2.75;;;;;;;18.92;48.22;99883.38;10243694;28;20161;-62
2023/07/03 04:30:32;;;;;;;10.27;2.75;;;;;;;18.84;48.38;99879.13;10245092;28;20069;-62
2023/07/03 04:35:33;;;;;;;12.02;2.38;;;;;;;18.85;48.26;99896.31;10227639;28;20055;-63
2023/07/03 04:40:34;;;;;;;10.75;2.40;;;;;;;18.83;47.97;99905.53;10227470;28;20048;-62
2023/07/03 04:45:40;;;;;;;7.38;1.70;;;;;;;18.85;47.83;99896.31;10225900;28;20061;-59
2023/07/03 04:50:45;;;;;;;13.73;2.35;;;;;;;18.94;47.74;99911.19;10237927;28;20138;-61
2023/07/03 04:55:47;;;;;;;11.70;2.92;;;;;;;19.09;47.47;99908.75;10242195;28;20495;-61
2023/07/03 05:00:49;;;;;;;8.48;2.58;;;;;;;19.17;47.51;99910.25;10244502;28;20070;-64
2023/07/03 05:05:51;;;;;;;9.20;1.80;;;;;;;19.13;47.54;99915.38;10246642;28;20048;-61
2023/07/03 05:10:52;;;;;;;6.22;2.22;;;;;;;19.22;47.08;99922.09;10242781;28;20111;-61
2023/07/03 05:15:55;;;;;;;11.95;2.10;;;;;;;19.29;47.10;99923.84;10242398;28;20059;-62
2023/07/03 05:20:56;;;;;;;10.43;1.90;;;;;;;19.25;47.22;99922.69;10240064;28;20063;-61
2023/07/03 05:25:58;;;;;;;8.48;1.85;;;;;;;19.28;47.12;99927.66;10243618;28;20070;-61
2023/07/03 05:30:59;;;;;;;12.85;3.10;;;;;;;19.30;47.24;99922.78;10234594;28;20499;-61
2023/07/03 05:36:02;;;;;;;14.50;3.00;;;;;;;19.32;47.06;99928.81;10239546;28;20146;-62
2023/07/03 05:41:03;;;;;;;9.63;2.05;;;;;;;19.42;46.87;99938.00;10247774;28;20055;-61
2023/07/03 05:46:05;;;;;;;14.95;4.05;;;;;;;19.51;47.03;99943.91;10222653;28;20062;-61
2023/07/03 05:51:06;;;;;;;10.50;2.30;;;;;;;19.60;46.85;99945.13;10222511;28;20055;-62
2023/07/03 05:56:08;;;;;;;8.93;2.67;;;;;;;19.61;46.58;99946.81;10226365;28;20051;-59
2023/07/03 06:01:09;;;;;;;11.68;2.28;;;;;;;19.49;46.44;99951.50;10246241;28;20055;-60
2023/07/03 06:06:12;;;;;;;14.90;2.78;;;;;;;19.49;46.65;99954.22;10253718;28;20086;-60
2023/07/03 06:11:14;;;;;;;9.05;2.70;;;;;;;19.58;46.50;99963.63;10250555;28;20059;-60
2023/07/03 06:16:15;;;;;;;15.23;2.67;;;;;;;19.38;46.79;99950.47;10232025;28;20066;-61
2023/07/03 06:21:17;;;;;;;12.25;2.60;;;;;;;19.51;46.33;99964.84;10229523;28;20467;-61
2023/07/03 06:26:18;;;;;;;9.98;2.08;;;;;;;19.57;46.20;99974.81;10239959;28;20078;-62
2023/07/03 06:31:20;;;;;;;6.97;2.35;;;;;;;19.52;46.19;99977.44;10232295;28;20065;-60
2023/07/03 06:36:21;;;;;;;10.70;2.47;;;;;;;19.62;46.23;99986.59;10234318;28;20050;-62
2023/07/03 06:41:28;;;;;;;11.13;1.98;;;;;;;19.82;45.72;99979.91;10238857;28;20055;-62
2023/07/03 06:46:30;;;;;;;;;;;;;;;19.83;45.96;99989.75;10234272;28;20051;-60
2023/07/03 06:51:32;;;;;;;10.82;2.55;;;;;;;19.88;45.64;99994.47;10253983;28;19937;-61
2023/07/03 06:56:33;;;;;;;5.93;1.42;;;;;;;19.87;45.63;99996.38;10254599;28;20062;-61
2023/07/03 07:01:35;;;;;;;7.85;1.65;;;;;;;19.97;45.69;99998.44;10237077;28;20047;-61
2023/07/03 07:06:39;;;;;;;6.63;2.42;;;;;;;19.90;45.39;99984.13;10253954;28;20131;-60
2023/07/03 07:11:40;;;;;;;12.35;2.22;;;;;;;19.86;45.56;99991.97;10254701;28;20031;-63
2023/07/03 07:22:05;;;;;;;11.00;3.67;;;;;;;19.78;45.79;100000.56;11915695;23;20451;-61
2023/07/03 07:27:07;;;;;;;8.40;2.05;;;;;;;19.74;45.60;99992.03;10459236;23;20050;-91
2023/07/03 07:32:09;;;;;;;8.45;1.33;;;;;;;20.01;45.37;99994.97;10301964;28;20055;-88
2023/07/03 07:37:11;;;;;;;10.77;1.50;;;;;;;20.46;44.87;99986.91;10270202;28;20082;-91
2023/07/03 07:42:12;;;;;;;6.30;1.50;;;;;;;20.69;44.12;99983.19;10258158;23;20146;-64
2023/07/03 07:47:14;;;;;;;5.90;1.40;;;;;;;20.77;44.09;99971.81;10226295;28;20056;-64
2023/07/03 07:52:15;;;;;;;8.13;1.88;;;;;;;21.07;43.57;99976.03;10222085;28;20138;-64
2023/07/03 07:57:17;;;;;;;11.50;2.80;;;;;;;21.35;42.93;99972.28;10226699;28;20059;-64
2023/07/03 08:02:18;;;;;;;11.35;1.63;;;;;;;21.08;42.49;99973.03;10223629;28;20063;-65
2023/07/03 08:07:20;;;;;;;8.63;1.63;;;;;;;21.03;42.41;99983.09;10226666;28;20066;-65
2023/07/03 08:12:21;;;;;;;6.47;0.88;;;;;;;21.11;41.89;99980.75;10227190;28;20044;-64
2023/07/03 08:17:23;;;;;;;7.05;1.25;;;;;;;21.20;41.78;99981.13;10261099;28;20054;-64
2023/07/03 08:22:24;;;;;;;8.95;1.63;;;;;;;21.00;42.03;99993.44;10262643;28;20055;-63
2023/07/03 08:27:25;;;;;;;6.07;1.88;;;;;;;21.30;41.47;99974.94;10259978;28;20062;-63
2023/07/03 08:32:27;;;;;;;9.32;1.67;;;;;;;21.64;40.83;99967.38;10259097;28;20054;-65
2023/07/03 08:37:30;;;;;;;4.47;1.25;;;;;;;21.65;40.33;99976.44;10258200;28;20043;-64
2023/07/03 08:42:38;;;;;;;9.30;1.33;;;;;;;21.73;40.10;99986.91;10277517;28;20047;-62
2023/07/03 08:47:41;;;;;;;5.18;1.10;;;;;;;21.56;40.03;99985.13;10311053;28;20319;-63
2023/07/03 08:52:48;;;;;;;4.78;0.90;;;;;;;21.62;39.93;99982.41;10305805;28;20040;-63
2023/07/03 08:57:49;;;;;;;5.25;1.10;;;;;;;21.90;39.88;99993.09;10310604;28;20046;-63
2023/07/03 09:03:06;;;;;;;5.70;1.08;;;;;;;22.10;39.50;99986.16;10290185;28;20065;-63
2023/07/03 09:08:19;;;;;;;7.53;1.48;;;;;;;22.01;39.29;99988.53;10472118;23;20878;-61
2023/07/03 09:13:28;;;;;;;5.82;0.80;;;;;;;21.87;39.12;99985.41;10273580;28;20046;-63
2023/07/03 09:23:52;;;;;;;;;;;;;;;22.02;39.00;100003.03;11428790;23;20054;-90
2023/07/03 09:34:14;;;;;;;5.90;0.60;;;;;;;22.06;38.22;100004.16;10948877;23;20062;-63
2023/07/03 09:39:19;;;;;;;4.32;0.93;;;;;;;22.18;37.88;100010.31;10266094;28;20445;-61
2023/07/03 09:44:22;;;;;;;6.88;0.77;;;;;;;22.45;37.96;100013.00;10257972;28;20061;-60
2023/07/03 09:49:28;;;;;;;7.03;0.85;;;;;;;22.34;37.96;100017.59;10243863;28;20059;-61
2023/07/03 09:54:31;;;;;;;2.88;0.77;;;;;;;22.18;38.00;100015.78;10257968;28;20146;-62
2023/07/03 09:59:35;;;;;;;2.70;0.65;;;;;;;22.49;37.54;100016.88;10267581;28;20115;-61
2023/07/03 10:04:45;;;;;;;6.50;0.90;;;;;;;22.31;37.79;100014.53;10267203;28;20051;-62
2023/07/03 10:09:50;;;;;;;5.53;1.02;;;;;;;22.43;37.65;100020.66;10259781;28;20054;-61
2023/07/03 10:15:06;;;;;;;5.22;0.60;;;;;;;22.66;37.75;100003.00;10232209;28;20415;-61
2023/07/03 10:20:13;;;;;;;3.45;0.80;;;;;;;22.86;37.20;100002.28;10224464;28;20134;-61
2023/07/03 10:25:24;;;;;;;6.18;1.58;;;;;;;23.02;37.24;100010.59;10229443;29;20458;-61
2023/07/03 10:30:31;;;;;;;11.35;1.15;;;;;;;23.09;36.76;100011.22;10234935;29;20062;-60
2023/07/03 10:35:34;;;;;;;5.05;1.17;;;;;;;23.00;36.72;100010.03;10235254;29;20050;-61
2023/07/03 10:40:41;;;;;;;5.50;1.13;;;;;;;23.02;36.56;100021.56;10235411;29;20048;-61
2023/07/03 10:45:42;;;;;;;4.40;0.93;;;;;;;22.83;36.93;100015.69;10234204;28;20040;-60
2023/07/03 10:50:57;;;;;;;5.10;1.00;;;;;;;23.19;36.37;100000.28;10243946;29;20438;-60
2023/07/03 10:56:19;;;;;;;5.50;1.08;;;;;;;23.56;36.12;100005.63;10233162;28;20533;-61
2023/07/03 11:01:28;;;;;;;4.68;1.63;;;;;;;23.36;36.67;99995.41;10233291;28;20044;-60
2023/07/03 11:06:42;;;;;;;6.28;1.15;;;;;;;23.80;36.20;99982.38;10232619;28;20096;-59
2023/07/03 11:12:16;;;;;;;6.13;0.95;;;;;;;24.25;35.39;99975.19;10230029;28;20047;-59
2023/07/03 11:17:52;;;;;;;4.05;0.73;;;;;;;24.66;34.73;99975.97;10228577;28;20043;-60
2023/07/03 11:23:21;;;;;;;4.70;1.65;;;;;;;24.49;35.32;99965.28;10229021;28;20062;-60
2023/07/03 11:28:40;;;;;;;8.17;1.30;;;;;;;24.71;34.65;99964.97;10232440;28;20051;-60
2023/07/03 11:33:44;;;;;;;3.95;0.82;;;;;;;24.68;34.87;99959.22;10231049;28;20058;-61
2023/07/03 11:39:09;;;;;;;3.55;1.15;;;;;;;24.59;34.39;99966.41;10228127;29;20063;-61
2023/07/03 11:44:20;;;;;;;6.00;1.05;;;;;;;24.66;34.07;99956.75;10231115;29;20070;-60
2023/07/03 11:49:31;;;;;;;5.43;1.00;;;;;;;24.93;33.79;99944.56;10228145;29;20051;-61
2023/07/03 11:54:36;;;;;;;4.25;1.10;;;;;;;25.07;33.10;99956.59;10233065;28;20062;-62
2023/07/03 11:59:41;;;;;;;1.58;0.70;;;;;;;25.05;33.63;99952.47;10229646;28;20401;-61
2023/07/03 12:04:42;;;;;;;5.60;1.20;;;;;;;25.44;33.29;99960.84;10230004;28;20070;-61
2023/07/03 12:09:50;;;;;;;2.90;0.90;;;;;;;25.60;32.79;99952.47;10228160;28;20117;-61
2023/07/03 12:15:01;;;;;;;6.10;1.08;;;;;;;25.51;32.84;99953.09;10232585;28;20058;-61
2023/07/03 12:20:12;;;;;;;3.13;0.70;;;;;;;25.92;32.98;99940.97;10229503;28;20582;-61
2023/07/03 12:25:22;;;;;;;3.53;1.00;;;;;;;26.02;31.66;99926.28;10231171;29;20130;-61
2023/07/03 12:30:30;;;;;;;2.63;0.88;;;;;;;25.63;31.59;99938.13;10238643;29;20074;-61
2023/07/03 12:35:35;;;;;;;5.15;0.80;;;;;;;26.03;30.54;99931.50;10216328;28;20098;-61
2023/07/03 12:40:41;;;;;;;5.37;1.10;;;;;;;26.13;30.33;99933.34;10223623;28;20055;-61
2023/07/03 12:45:50;;;;;;;5.65;1.00;;;;;;;26.31;29.84;99929.84;10218530;29;20058;-60
2023/07/03 12:50:57;;;;;;;3.03;0.65;;;;;;;26.71;29.59;99922.25;10228791;29;20039;-61
2023/07/03 12:56:03;;;;;;;4.13;0.90;;;;;;;26.97;29.35;99899.06;10231085;28;20067;-61
2023/07/03 13:01:07;;;;;;;4.28;1.00;;;;;;;27.20;29.05;99925.78;10235829;29;20499;-61
2023/07/03 13:06:21;;;;;;;5.53;0.88;;;;;;;27.25;28.63;99920.22;10238637;28;20111;-62
2023/07/03 13:11:39;;;;;;;3.20;0.73;;;;;;;27.39;28.29;99914.78;10238221;28;20518;-60
2023/07/03 13:16:43;;;;;;;4.45;0.73;;;;;;;27.76;27.86;99928.84;10218182;28;20055;-61
2023/07/03 13:21:50;;;;;;;3.72;0.80;;;;;;;27.27;27.72;99917.16;10214211;29;20123;-62
2023/07/03 13:26:52;;;;;;;3.65;0.98;;;;;;;27.05;28.07;99903.91;10231688;29;20058;-61
2023/07/03 13:32:13;;;;;;;3.53;0.73;;;;;;;27.24;27.97;99915.81;10221833;28;20057;-62
2023/07/03 13:37:22;;;;;;;3.67;1.20;;;;;;;26.94;27.64;99905.19;10219083;28;20051;-61
2023/07/03 13:42:24;;;;;;;3.75;0.90;;;;;;;26.81;27.66;99903.97;10224413;29;20043;-61
2023/07/03 13:47:25;;;;;;;3.08;1.00;;;;;;;26.68;27.30;99897.22;10223256;29;20047;-62
2023/07/03 13:52:30;;;;;;;2.72;0.75;;;;;;;26.69;27.62;99902.44;10221484;28;20079;-61
2023/07/03 13:57:32;;;;;;;1.85;0.80;;;;;;;26.64;26.81;99907.19;10223429;28;20051;-61
2023/07/03 14:02:33;;;;;;;2.20;0.90;;;;;;;26.30;27.49;99886.88;10225025;28;20541;-62
2023/07/03 14:07:49;;;;;;;2.45;0.73;;;;;;;26.57;27.03;99892.91;10224915;28;20455;-62
2023/07/03 14:12:51;;;;;;;5.70;0.90;;;;;;;27.37;26.34;99897.69;10223874;28;20047;-61
2023/07/03 14:17:53;;;;;;;2.05;1.05;;;;;;;26.75;26.59;99892.16;10223648;28;20469;-63
2023/07/03 14:22:55;;;;;;;5.53;0.90;;;;;;;26.40;26.44;99896.13;10216926;29;20055;-64
2023/07/03 14:27:58;;;;;;;6.53;1.10;;;;;;;26.30;26.42;99888.78;10217894;28;20047;-64
2023/07/03 14:33:00;;;;;;;2.95;1.00;;;;;;;26.00;26.92;99898.19;10219786;29;20223;-64
2023/07/03 14:38:01;;;;;;;2.00;0.75;;;;;;;26.00;27.08;99898.19;10217997;28;20075;-64
2023/07/03 14:43:05;;;;;;;3.13;0.95;;;;;;;26.26;27.52;99901.53;10216453;29;20048;-65
2023/07/03 14:48:08;;;;;;;2.50;0.90;;;;;;;26.31;28.05;99898.72;10219251;29;20067;-71
2023/07/03 14:53:09;;;;;;;4.55;0.95;;;;;;;26.37;28.18;99891.22;10222012;28;20058;-66
2023/07/03 14:58:12;;;;;;;2.85;0.80;;;;;;;26.07;27.74;99893.19;10219847;28;20052;-67
2023/07/03 15:03:14;;;;;;;6.65;1.10;;;;;;;26.05;27.80;99898.16;10219609;28;20047;-67
2023/07/03 15:08:15;;;;;;;6.18;1.42;;;;;;;26.12;28.57;99904.94;10222952;28;20521;-66
2023/07/03 15:13:17;;;;;;;3.42;0.70;;;;;;;25.96;29.37;99900.72;10224631;29;20780;-66
2023/07/03 15:18:18;;;;;;;3.30;0.68;;;;;;;26.33;28.91;99890.16;10224138;29;20498;-66
2023/07/03 15:23:20;;;;;;;4.43;0.60;;;;;;;26.54;29.36;99880.56;10222363;29;20054;-67
2023/07/03 15:28:21;;;;;;;3.20;0.98;;;;;;;26.79;29.09;99892.41;10221606;28;20055;-65
2023/07/03 15:33:24;;;;;;;2.30;0.80;;;;;;;27.28;28.71;99880.16;10219121;28;20067;-65
2023/07/03 15:38:26;;;;;;;3.42;0.90;;;;;;;27.81;27.98;99885.38;10225863;29;20044;-67
2023/07/03 15:43:28;;;;;;;1.70;1.00;;;;;;;27.71;27.90;99882.78;10223400;28;20511;-67
2023/07/03 15:48:31;;;;;;;4.40;1.80;;;;;;;28.04;27.37;99878.09;10222975;29;20055;-67
2023/07/03 15:53:33;;;;;;;3.47;1.02;;;;;;;27.80;27.03;99896.72;10226982;29;20058;-66
2023/07/03 15:58:37;;;;;;;3.90;0.90;;;;;;;27.37;27.73;99878.38;10226115;28;20066;-77
2023/07/03 16:03:40;;;;;;;1.70;0.93;;;;;;;27.65;27.62;99878.47;10218946;29;20051;-69
2023/07/03 16:08:42;;;;;;;6.80;1.50;;;;;;;27.65;27.41;99881.25;10226517;28;20062;-63
2023/07/03 16:13:45;;;;;;;4.53;1.30;;;;;;;26.95;27.87;99882.78;10260707;28;20055;-63
2023/07/03 16:18:52;;;;;;;3.42;0.95;;;;;;;26.64;28.26;99880.44;10247111;28;20048;-63
2023/07/03 16:23:56;;;;;;;3.35;1.58;;;;;;;26.94;28.11;99874.84;10245460;29;20047;-63
2023/07/03 16:28:57;;;;;;;2.08;0.90;;;;;;;26.69;28.79;99874.03;10244580;29;20058;-62
2023/07/03 16:34:00;;;;;;;5.32;1.38;;;;;;;26.89;28.52;99867.44;10244792;28;20051;-62
2023/07/03 16:39:03;;;;;;;2.03;1.13;;;;;;;27.36;28.01;99857.38;10256007;28;20050;-63
2023/07/03 16:44:05;;;;;;;3.28;1.02;;;;;;;27.32;28.21;99861.88;10268756;28;20822;-63
2023/07/03 16:49:07;;;;;;;5.32;1.25;;;;;;;27.24;28.26;99859.78;10271906;28;20031;-63
2023/07/03 16:54:08;;;;;;;3.47;0.90;;;;;;;27.49;28.04;99853.88;10264486;28;20230;-63
2023/07/03 16:59:10;;;;;;;4.35;1.08;;;;;;;27.45;27.80;99855.59;10222197;29;20556;-63
2023/07/03 17:04:11;;;;;;;3.55;1.00;;;;;;;26.94;28.23;99859.09;10220530;28;20065;-62
2023/07/03 17:09:13;;;;;;;4.97;1.13;;;;;;;27.10;28.18;99857.75;10217316;29;20177;-63
2023/07/03 17:14:14;;;;;;;5.65;1.50;;;;;;;27.69;27.82;99846.38;10221106;29;20047;-62
2023/07/03 17:19:16;;;;;;;3.50;1.35;;;;;;;27.46;28.01;99851.69;10220565;28;20059;-62
2023/07/03 17:24:17;;;;;;;4.32;0.80;;;;;;;27.63;27.87;99853.91;10223572;28;20051;-63
2023/07/03 17:29:18;;;;;;;4.97;1.20;;;;;;;27.91;28.17;99840.19;10223660;28;20058;-63
2023/07/03 17:34:20;;;;;;;4.60;1.30;;;;;;;28.14;27.55;99837.56;10222593;28;20070;-63
2023/07/03 17:39:21;;;;;;;7.38;1.17;;;;;;;28.18;27.75;99830.28;10201444;29;20428;-63
2023/07/03 17:44:23;;;;;;;2.05;1.00;;;;;;;28.23;27.86;99828.25;10221451;28;20067;-63
2023/07/03 17:49:24;;;;;;;3.10;0.80;;;;;;;28.19;27.85;99820.88;10225288;29;20043;-64
2023/07/03 17:54:26;;;;;;;3.10;0.70;;;;;;;28.25;27.68;99823.22;10221762;28;20050;-63
2023/07/03 17:59:27;;;;;;;2.30;0.90;;;;;;;28.14;27.99;99815.44;10225709;28;20569;-63
2023/07/03 18:04:28;;;;;;;5.63;1.00;;;;;;;28.11;28.88;99821.59;10225843;28;20057;-63
2023/07/03 18:09:30;;;;;;;4.35;0.70;;;;;;;28.00;29.10;99827.34;10226030;29;20549;-62
2023/07/03 18:14:31;;;;;;;2.92;0.95;;;;;;;27.81;30.04;99821.03;10210866;28;20058;-63
2023/07/03 18:19:33;;;;;;;3.20;1.00;;;;;;;27.29;30.26;99821.91;10224754;28;20064;-64
2023/07/03 18:24:34;;;;;;;4.30;0.98;;;;;;;26.97;31.02;99817.09;10227028;29;20520;-64
2023/07/03 18:29:36;;;;;;;2.85;0.80;;;;;;;26.77;31.03;99812.72;10231860;29;20186;-65
2023/07/03 18:34:38;;;;;;;2.17;0.75;;;;;;;26.36;32.04;99815.16;10218351;28;20131;-66
2023/07/03 18:39:39;;;;;;;1.85;0.60;;;;;;;25.97;32.53;99807.88;10230791;28;20046;-65
2023/07/03 18:44:41;;;;;;;1.77;0.68;;;;;;;25.82;32.91;99814.34;10233641;28;20521;-63
2023/07/03 18:49:43;;;;;;;2.95;0.60;;;;;;;25.46;33.35;99817.44;10223249;29;20054;-64
2023/07/03 18:54:44;;;;;;;1.67;0.70;;;;;;;25.30;33.58;99823.06;10229908;29;20047;-63
2023/07/03 18:59:47;;;;;;;1.52;0.60;;;;;;;25.11;33.81;99819.31;10233656;29;20180;-65
2023/07/03 19:04:52;;;;;;;1.85;0.80;;;;;;;24.91;34.65;99825.78;10222660;28;20040;-65
2023/07/03 19:09:54;;;;;;;2.17;0.50;;;;;;;24.79;34.49;99822.56;10220195;29;20051;-65
2023/07/03 19:15:16;;;;;;;1.23;0.50;;;;;;;24.64;35.09;99815.19;10214047;28;20384;-64
2023/07/03 19:20:18;;;;;;;6.07;0.85;;;;;;;24.65;35.45;99825.09;10232402;28;20403;-65
2023/07/03 19:25:20;;;;;;;1.67;0.60;;;;;;;24.41;35.78;99822.13;10228766;29;20075;-65
2023/07/03 19:30:21;;;;;;;3.20;0.80;;;;;;;24.30;35.92;99830.41;10229938;29;20055;-64
2023/07/03 19:35:23;;;;;;;4.47;0.65;;;;;;;24.23;36.55;99838.16;10229550;28;20055;-65
2023/07/03 19:40:24;;;;;;;2.05;0.50;;;;;;;24.10;37.56;99836.00;10232652;29;20052;-63
2023/07/03 19:45:26;;;;;;;0.75;0.38;;;;;;;23.94;37.87;99838.75;10212820;29;20051;-64
2023/07/03 19:50:27;;;;;;;2.08;0.50;;;;;;;23.85;38.62;99845.09;10224171;29;20058;-64
2023/07/03 19:55:29;;;;;;;4.63;0.80;;;;;;;23.71;39.18;99853.03;10227913;28;20418;-62
2023/07/03 20:00:31;;;;;;;1.83;0.60;;;;;;;23.64;39.54;99853.31;10226227;28;20067;-64
2023/07/03 20:05:35;;;;;;;6.18;0.50;;;;;;;23.60;39.47;99854.13;10227061;28;20051;-62
2023/07/03 20:10:37;;;;;;;3.03;0.70;;;;;;;23.55;39.90;99853.03;10229804;28;20392;-63
2023/07/03 20:15:42;;;;;;;1.40;0.50;;;;;;;23.57;39.97;99858.25;10227971;28;20048;-63
2023/07/03 20:20:44;;;;;;;1.00;0.60;;;;;;;23.49;40.21;99865.09;10224271;29;20388;-61
2023/07/03 20:25:56;;;;;;;1.58;0.70;;;;;;;23.33;40.72;99868.94;10222957;28;20078;-62
2023/07/03 20:30:58;;;;;;;1.27;0.50;;;;;;;23.17;40.82;99877.13;10214763;29;20062;-61
2023/07/03 20:36:03;;;;;;;2.67;0.57;;;;;;;23.07;41.47;99879.06;10225934;28;20047;-60
2023/07/03 20:41:08;;;;;;;1.48;0.60;;;;;;;22.95;41.70;99876.53;10228555;28;20060;-60
2023/07/03 20:46:12;;;;;;;1.73;0.63;;;;;;;22.78;42.41;99877.53;10227227;28;20059;-61
2023/07/03 20:51:20;;;;;;;1.30;0.60;;;;;;;22.66;42.62;99889.84;10222929;29;20078;-61
2023/07/03 20:56:26;;;;;;;1.25;0.73;;;;;;;22.50;43.18;99888.94;10225920;29;20059;-62
2023/07/03 21:01:30;;;;;;;3.42;0.70;;;;;;;22.34;43.77;99897.06;10221296;28;20376;-63
2023/07/03 21:06:34;;;;;;;1.23;0.50;;;;;;;22.27;43.83;99895.66;10224308;28;20059;-59
2023/07/03 21:11:39;;;;;;;1.73;0.50;;;;;;;22.16;44.43;99897.50;10222150;28;20079;-59
2023/07/03 21:16:40;;;;;;;1.27;0.50;;;;;;;22.04;44.94;99899.56;10219456;28;20451;-59
2023/07/03 21:21:42;;;;;;;1.02;0.40;;;;;;;21.95;45.72;99908.28;10218054;29;20081;-59
2023/07/03 21:26:44;;;;;;;4.10;0.50;;;;;;;21.90;45.92;99905.53;10221976;29;20047;-59
2023/07/03 21:31:45;;;;;;;3.35;0.85;;;;;;;21.83;47.00;99913.13;10217531;29;20044;-59
2023/07/03 21:36:47;;;;;;;0.98;0.50;;;;;;;21.78;47.58;99911.19;10223830;28;20396;-59
2023/07/03 21:41:48;;;;;;;4.65;0.50;;;;;;;21.70;48.38;99919.03;10223559;29;20395;-59
2023/07/03 21:46:55;;;;;;;1.75;0.50;;;;;;;21.62;48.96;99916.75;10222615;29;20047;-58
2023/07/03 21:51:56;;;;;;;1.20;0.50;;;;;;;21.54;49.66;99918.91;10221412;29;20047;-59
2023/07/03 21:56:58;;;;;;;2.17;0.70;;;;;;;21.49;50.20;99924.31;10220383;29;20052;-59
2023/07/03 22:01:59;;;;;;;3.30;0.65;;;;;;;21.43;50.85;99924.50;10226910;28;20122;-60
2023/07/03 22:07:01;;;;;;;1.27;0.45;;;;;;;21.33;51.09;99920.56;10221216;28;21252;-59
2023/07/03 22:12:06;;;;;;;0.90;0.50;;;;;;;21.22;52.24;99929.75;10223430;28;20050;-58
2023/07/03 22:17:07;;;;;;;2.25;0.65;;;;;;;21.20;52.62;99935.47;10225333;29;20070;-59
2023/07/03 22:22:10;;;;;;;1.45;0.45;;;;;;;21.14;52.65;99933.75;10228807;28;20055;-59
2023/07/03 22:27:12;;;;;;;2.58;0.60;;;;;;;21.08;53.36;99936.69;10232861;29;20055;-59
2023/07/03 22:32:13;;;;;;;1.42;0.50;;;;;;;21.06;53.29;99938.88;10214530;28;20444;-59
2023/07/03 22:37:15;;;;;;;5.55;0.70;;;;;;;20.94;54.05;99931.63;10223531;28;20522;-58
2023/07/03 22:42:16;;;;;;;2.83;0.57;;;;;;;20.92;54.44;99936.50;10228766;29;20730;-58
2023/07/03 22:47:17;;;;;;;1.80;0.57;;;;;;;20.92;54.22;99941.97;10224136;29;20052;-59
2023/07/03 22:52:19;;;;;;;1.33;0.60;;;;;;;20.81;55.13;99948.38;10228660;28;20069;-58
2023/07/03 22:57:20;;;;;;;1.42;0.60;;;;;;;20.76;55.51;99943.69;10225897;29;20479;-58
2023/07/03 23:02:22;;;;;;;2.88;0.60;;;;;;;20.67;55.64;99955.31;10225603;29;20054;-58
2023/07/03 23:07:23;;;;;;;2.55;0.82;;;;;;;20.65;55.83;99950.09;10234059;28;20095;-58
2023/07/03 23:12:25;;;;;;;2.50;0.70;;;;;;;20.55;56.28;99961.66;10234228;28;20055;-58
2023/07/03 23:17:33;;;;;;;1.58;0.70;;;;;;;20.48;56.57;99957.47;10224872;29;20048;-58
2023/07/03 23:22:34;;;;;;;1.42;0.57;;;;;;;20.39;56.90;99955.16;10222604;28;20051;-58
2023/07/03 23:27:36;;;;;;;2.10;0.60;;;;;;;20.18;57.84;99964.13;10225811;29;20055;-58
2023/07/03 23:32:37;;;;;;;1.38;0.75;;;;;;;20.05;58.42;99961.75;10226502;28;20059;-58
2023/07/03 23:37:43;;;;;;;4.15;0.73;;;;;;;19.93;59.14;99970.81;10228568;29;20127;-58
2023/07/03 23:42:45;;;;;;;3.63;0.95;;;;;;;19.80;59.12;99971.13;10224974;29;20494;-59